Time;durP1;ratioP1;P1;durP2;ratioP2;P2;SDS_P1;SDS_P2;PMS_P1;PMS_P2;Temp;Humidity;BMP_temperature;BMP_pressure;BME280_temperature;BME280_humidity;BME280_pressure;Samples;Min_cycle;Max_cycle;Signal;HPM_P1;HPM_P2
2022/04/10 00:01:09;;;;;;;2.90;2.80;;;;;;;1.83;89.55;101371.63;6088202;23;20009;-71
2022/04/10 00:03:36;;;;;;;4.45;4.25;;;;;;;1.84;89.91;101369.88;6084678;23;20026;-72
2022/04/10 00:06:02;;;;;;;2.80;2.70;;;;;;;1.58;89.72;101311.34;6084190;23;20022;-71
2022/04/10 00:08:29;;;;;;;2.92;2.83;;;;;;;1.83;89.21;101371.63;6089381;23;20077;-71
2022/04/10 00:10:55;;;;;;;2.80;2.70;;;;;;;1.54;89.77;101343.28;6078139;23;20010;-71
2022/04/10 00:13:22;;;;;;;3.10;3.00;;;;;;;1.62;90.49;101375.16;6086252;23;20029;-72
2022/04/10 00:15:49;;;;;;;2.72;2.63;;;;;;;1.42;90.82;101344.19;6124515;23;20084;-72
2022/04/10 00:18:15;;;;;;;2.70;2.60;;;;;;;1.45;91.11;101354.53;6094653;23;20470;-71
2022/04/10 00:20:42;;;;;;;3.85;3.70;;;;;;;0.99;91.55;101303.00;6054020;23;20224;-71
2022/04/10 00:23:09;;;;;;;2.83;2.72;;;;;;;0.71;91.79;101259.13;6091771;23;20245;-71
2022/04/10 00:25:35;;;;;;;3.67;3.58;;;;;;;1.44;91.76;101375.22;6054792;23;20462;-72
2022/04/10 00:28:02;;;;;;;2.80;2.70;;;;;;;1.31;92.18;101359.75;6088418;23;20136;-72
2022/04/10 00:30:29;;;;;;;4.45;4.25;;;;;;;1.41;92.07;101364.91;6083091;23;20536;-69
2022/04/10 00:32:55;;;;;;;2.80;2.70;;;;;;;1.36;92.21;101351.97;6092161;23;20021;-72
2022/04/10 00:35:22;;;;;;;3.22;3.03;;;;;;;1.46;92.39;101371.75;6089917;23;20028;-72
2022/04/10 00:37:48;;;;;;;2.80;2.70;;;;;;;1.41;nan;101370.94;6051377;23;20044;-72
2022/04/10 00:40:15;;;;;;;2.63;2.53;;;;;;;1.29;93.03;101366.66;6065787;23;21619;-72
2022/04/10 00:42:51;;;;;;;3.35;3.25;;;;;;;1.16;93.34;101350.34;6078044;23;20024;-72
2022/04/10 00:45:20;;;;;;;2.90;2.80;;;;;;;1.34;93.49;101375.28;6086508;23;20022;-72
2022/04/10 00:47:47;;;;;;;2.90;2.80;;;;;;;1.25;93.64;101375.28;6082409;23;20831;-72
2022/04/10 00:50:15;;;;;;;3.20;3.10;;;;;;;1.18;94.12;101382.22;6079475;23;20459;-71
2022/04/10 00:52:43;;;;;;;2.72;2.63;;;;;;;0.99;94.00;101346.94;6101690;23;20032;-71
2022/04/10 00:55:10;;;;;;;2.70;2.60;;;;;;;1.13;94.78;101381.34;6077552;23;20065;-72
2022/04/10 00:57:37;;;;;;;2.78;2.67;;;;;;;0.99;94.75;101365.88;6102211;23;20112;-71
2022/04/10 01:00:08;;;;;;;2.70;2.60;;;;;;;0.83;94.89;101340.06;6096825;23;20096;-70
2022/04/10 01:02:34;;;;;;;2.70;2.60;;;;;;;0.74;95.25;101317.66;6097464;23;20395;-72
2022/04/10 01:05:02;;;;;;;3.25;3.15;;;;;;;0.68;94.64;101315.09;6094170;23;20058;-72
2022/04/10 01:07:28;;;;;;;2.90;2.80;;;;;;;0.97;95.08;101384.84;6097399;23;20085;-72
2022/04/10 01:09:56;;;;;;;2.83;2.72;;;;;;;0.91;95.95;101382.25;6075206;23;20848;-72
2022/04/10 01:12:23;;;;;;;2.80;2.70;;;;;;;0.85;95.99;101384.84;6094890;23;20040;-72
2022/04/10 01:14:51;;;;;;;2.80;2.70;;;;;;;0.48;96.43;101340.94;6079785;23;20055;-71
2022/04/10 01:17:18;;;;;;;2.78;2.67;;;;;;;0.66;96.50;101387.47;6085828;23;20049;-72
2022/04/10 01:19:45;;;;;;;3.20;3.10;;;;;;;0.46;97.07;101350.41;6092202;23;20247;-72
2022/04/10 01:22:32;;;;;;;2.83;2.72;;;;;;;-0.05;97.06;101267.81;6087635;23;20050;-70
2022/04/10 01:25:02;;;;;;;2.65;2.55;;;;;;;0.14;97.37;101302.22;6089773;23;20242;-71
2022/04/10 01:27:29;;;;;;;3.85;3.70;;;;;;;0.33;97.48;101336.66;6059819;23;20196;-70
2022/04/10 01:29:55;;;;;;;2.70;2.60;;;;;;;0.64;97.42;101383.97;6080175;23;20025;-69
2022/04/10 01:32:22;;;;;;;2.80;2.70;;;;;;;0.51;98.19;101367.63;6084257;23;20087;-70
2022/04/10 01:34:49;;;;;;;3.60;3.50;;;;;;;0.45;97.13;101367.63;6071045;23;20068;-70
2022/04/10 01:37:17;;;;;;;2.45;2.35;;;;;;;0.50;98.06;101381.44;6105097;23;20077;-70
2022/04/10 01:39:44;;;;;;;2.53;2.42;;;;;;;0.34;97.91;101356.44;6077438;23;20021;-70
2022/04/10 01:42:10;;;;;;;2.80;2.70;;;;;;;0.44;97.94;101383.13;6089622;23;20356;-69
2022/04/10 01:44:41;;;;;;;4.35;4.15;;;;;;;0.47;97.72;101386.56;6086555;23;20080;-69
2022/04/10 01:47:07;;;;;;;2.78;2.67;;;;;;;0.38;98.81;101379.69;6083247;23;20061;-69
2022/04/10 01:49:34;;;;;;;5.80;5.45;;;;;;;-0.71;98.54;101191.22;6090387;23;20041;-69
2022/04/10 01:52:01;;;;;;;2.60;2.50;;;;;;;0.48;98.18;101383.16;6094746;23;20063;-72
2022/04/10 01:54:27;;;;;;;3.45;3.35;;;;;;;0.43;98.67;101377.09;6075702;23;20020;-72
2022/04/10 01:56:53;;;;;;;2.72;2.63;;;;;;;0.31;98.39;101357.31;6094919;23;20030;-71
2022/04/10 01:59:20;;;;;;;2.50;2.40;;;;;;;0.46;98.42;101382.28;6077742;23;20033;-71
2022/04/10 02:01:48;;;;;;;3.00;2.90;;;;;;;0.43;98.11;101378.84;6084585;23;20473;-71
2022/04/10 02:04:15;;;;;;;2.70;2.60;;;;;;;0.17;98.54;101352.13;6077391;23;20026;-71
2022/04/10 02:06:42;;;;;;;3.95;3.80;;;;;;;0.33;99.11;101376.22;6078611;23;20022;-71
2022/04/10 02:09:08;;;;;;;2.75;2.65;;;;;;;0.27;99.21;101362.47;6082003;23;20259;-71
2022/04/10 02:11:35;;;;;;;4.20;4.00;;;;;;;0.04;99.51;101324.59;6063851;23;20057;-71
2022/04/10 02:14:01;;;;;;;2.60;2.50;;;;;;;0.36;99.98;101376.25;6082089;23;20035;-71
2022/04/10 02:16:27;;;;;;;4.40;4.20;;;;;;;0.08;99.90;101346.97;6075095;23;20045;-72
2022/04/10 02:18:54;;;;;;;2.67;2.58;;;;;;;-0.06;99.70;101339.19;6088965;23;20016;-71
2022/04/10 02:21:21;;;;;;;2.90;2.80;;;;;;;0.13;99.77;101383.09;6105841;23;20019;-71
2022/04/10 02:23:48;;;;;;;2.60;2.50;;;;;;;0.12;99.49;101379.66;6123213;23;20032;-70
2022/04/10 02:26:14;;;;;;;2.60;2.50;;;;;;;0.12;99.06;101387.41;6106727;23;20256;-71
2022/04/10 02:28:41;;;;;;;4.65;4.45;;;;;;;-0.03;99.45;101383.06;6109965;23;20286;-71
2022/04/10 02:31:08;;;;;;;5.13;2.90;;;;;;;0.02;99.19;101389.94;6101989;23;20080;-71
2022/04/10 02:33:35;;;;;;;4.82;4.63;;;;;;;-0.30;100.00;101341.69;6078305;23;20017;-71
2022/04/10 02:36:02;;;;;;;2.60;2.50;;;;;;;-0.02;100.00;101392.53;6111180;23;20045;-71
2022/04/10 02:38:29;;;;;;;4.22;4.05;;;;;;;-0.14;99.76;101374.44;6098107;23;20022;-71
2022/04/10 02:40:55;;;;;;;2.80;2.70;;;;;;;-0.05;100.00;101394.22;6093652;23;20122;-71
2022/04/10 02:43:23;;;;;;;2.80;2.70;;;;;;;-0.07;99.93;101399.38;6107220;23;20240;-71
2022/04/10 02:45:49;;;;;;;2.65;2.55;;;;;;;-0.07;99.90;101399.38;6104190;23;20481;-71
2022/04/10 02:48:16;;;;;;;3.03;2.92;;;;;;;-0.24;100.00;101370.09;6119179;23;20366;-71
2022/04/10 02:50:42;;;;;;;2.70;2.60;;;;;;;-0.14;100.00;101389.91;6111555;23;20761;-70
2022/04/10 02:53:09;;;;;;;2.65;2.55;;;;;;;-0.17;100.00;101394.19;6080086;23;20013;-71
2022/04/10 02:55:35;;;;;;;2.70;2.60;;;;;;;-1.01;100.00;101252.09;6097003;23;20042;-71
2022/04/10 02:58:01;;;;;;;2.67;2.58;;;;;;;-0.31;100.00;101370.94;6117613;23;20274;-71
2022/04/10 03:00:28;;;;;;;4.38;4.18;;;;;;;-0.13;100.00;101412.25;6105638;23;20087;-71
2022/04/10 03:02:54;;;;;;;2.92;2.83;;;;;;;-0.18;100.00;101398.50;6099804;23;20112;-71
2022/04/10 03:05:21;;;;;;;2.60;2.50;;;;;;;-0.13;100.00;101403.66;6098974;23;20650;-71
2022/04/10 03:07:54;;;;;;;2.80;2.70;;;;;;;0.00;100.00;101413.19;6095458;23;20033;-70
2022/04/10 03:10:21;;;;;;;2.75;2.65;;;;;;;0.06;100.00;101417.47;6109782;23;20049;-71
2022/04/10 03:12:48;;;;;;;2.67;2.58;;;;;;;0.10;100.00;101416.63;6115452;23;20084;-71
2022/04/10 03:15:15;;;;;;;2.90;2.80;;;;;;;-0.04;100.00;101398.53;6083644;23;20033;-71
2022/04/10 03:17:41;;;;;;;2.80;2.70;;;;;;;-0.33;100.00;101333.97;6114207;23;20073;-71
2022/04/10 03:20:11;;;;;;;2.70;2.60;;;;;;;-0.06;100.00;101389.91;6087629;23;20022;-71
2022/04/10 03:22:38;;;;;;;5.20;5.00;;;;;;;0.09;100.00;101422.66;6099087;23;20013;-71
2022/04/10 03:25:05;;;;;;;2.70;2.60;;;;;;;0.08;100.00;101434.72;6108962;23;20402;-71
2022/04/10 03:27:31;;;;;;;4.50;4.30;;;;;;;-0.30;100.00;101360.63;6113244;23;20593;-72
2022/04/10 03:29:58;;;;;;;2.67;2.58;;;;;;;-0.16;100.00;101385.59;6110037;23;20037;-71
2022/04/10 03:32:24;;;;;;;2.92;2.83;;;;;;;-0.22;100.00;101373.53;6112890;23;20053;-71
2022/04/10 03:34:51;;;;;;;3.00;2.90;;;;;;;0.12;100.00;101436.44;6117100;23;20036;-71
2022/04/10 03:37:17;;;;;;;2.70;2.60;;;;;;;0.14;100.00;101421.81;6093521;23;20778;-71
2022/04/10 03:39:43;;;;;;;3.35;3.25;;;;;;;0.17;100.00;101428.69;6101423;23;20465;-71
2022/04/10 03:42:10;;;;;;;2.80;2.70;;;;;;;-0.36;100.00;101333.94;6116534;23;20088;-72
2022/04/10 03:44:36;;;;;;;4.68;4.47;;;;;;;0.18;100.00;101439.03;6093259;23;20017;-73
2022/04/10 03:47:03;;;;;;;2.80;2.70;;;;;;;0.19;100.00;101432.16;6110015;23;20010;-72
2022/04/10 03:49:29;;;;;;;4.80;4.60;;;;;;;0.16;100.00;101433.00;6119684;23;20383;-71
2022/04/10 03:51:55;;;;;;;2.83;2.72;;;;;;;0.05;100.00;101423.50;6117075;23;20021;-72
2022/04/10 03:54:22;;;;;;;2.45;2.35;;;;;;;-0.09;100.00;101403.69;6109360;23;20022;-73
2022/04/10 03:56:48;;;;;;;3.10;3.00;;;;;;;-0.35;100.00;101372.63;6112065;23;20103;-72
2022/04/10 03:59:15;;;;;;;2.55;2.45;;;;;;;-0.06;100.00;101438.94;6073660;23;20638;-72
2022/04/10 04:01:41;;;;;;;4.18;3.97;;;;;;;-0.12;100.00;101444.06;6120751;23;20092;-73
2022/04/10 04:04:08;;;;;;;2.65;2.55;;;;;;;-0.33;100.00;101414.78;6115702;23;20025;-73
2022/04/10 04:06:34;;;;;;;4.78;4.57;;;;;;;-0.68;100.00;101381.06;6110774;23;20018;-72
2022/04/10 04:09:01;;;;;;;2.80;2.70;;;;;;;-0.46;100.00;101423.28;6095213;23;20052;-72
2022/04/10 04:11:27;;;;;;;4.18;4.00;;;;;;;-0.48;100.00;101438.78;6084652;23;20026;-69
2022/04/10 04:13:55;;;;;;;2.70;2.60;;;;;;;-0.38;100.00;101468.06;6102829;23;20102;-72
2022/04/10 04:16:21;;;;;;;2.80;2.70;;;;;;;-0.45;100.00;101461.97;6112744;23;20072;-72
2022/04/10 04:18:48;;;;;;;2.63;2.53;;;;;;;-0.48;100.00;101474.00;6154000;23;20024;-74
2022/04/10 04:21:14;;;;;;;2.70;2.60;;;;;;;-0.96;100.00;101404.13;6117996;23;20024;-72
2022/04/10 04:23:41;;;;;;;4.35;4.15;;;;;;;-0.76;100.00;101455.81;6155004;23;20167;-71
2022/04/10 04:26:07;;;;;;;2.60;2.50;;;;;;;-0.62;100.00;101474.78;6115668;23;20057;-70
2022/04/10 04:28:36;;;;;;;4.88;4.68;;;;;;;-0.96;100.00;101436.75;6102281;23;20430;-71
2022/04/10 04:31:02;;;;;;;2.63;2.53;;;;;;;-0.90;100.00;101447.09;6105701;23;20546;-73
2022/04/10 04:33:29;;;;;;;4.85;4.65;;;;;;;-0.81;100.00;101472.94;6105887;23;20533;-69
2022/04/10 04:35:55;;;;;;;2.85;2.70;;;;;;;-0.78;100.00;101491.00;6101850;23;20294;-73
2022/04/10 04:38:22;;;;;;;2.65;2.55;;;;;;;-0.79;100.00;101493.56;6107099;23;20017;-73
2022/04/10 04:40:48;;;;;;;2.60;2.50;;;;;;;-1.04;100.00;101459.91;6106980;23;20049;-72
2022/04/10 04:43:14;;;;;;;2.80;2.70;;;;;;;-0.85;100.00;101496.94;6107103;23;20442;-69
2022/04/10 04:45:41;;;;;;;2.70;2.60;;;;;;;-0.87;100.00;101496.94;6086845;23;20273;-69
2022/04/10 04:48:07;;;;;;;2.42;2.33;;;;;;;-1.38;100.00;101418.41;6111771;23;20085;-71
2022/04/10 04:50:34;;;;;;;5.10;4.90;;;;;;;-0.88;100.00;101504.66;6093928;23;20338;-70
2022/04/10 04:53:00;;;;;;;2.70;2.60;;;;;;;-0.96;100.00;101491.72;6097225;23;20033;-71
2022/04/10 04:55:27;;;;;;;4.07;3.90;;;;;;;-0.96;100.00;101507.19;6114317;23;20275;-70
2022/04/10 04:57:53;;;;;;;2.70;2.60;;;;;;;-0.96;100.00;101498.56;6092686;23;20025;-70
2022/04/10 05:00:20;;;;;;;2.50;2.40;;;;;;;-0.88;100.00;101514.97;6104364;23;20019;-70
2022/04/10 05:02:47;;;;;;;2.80;2.70;;;;;;;-0.83;100.00;101516.72;6117929;23;21313;-72
2022/04/10 05:05:14;;;;;;;2.58;2.47;;;;;;;-1.07;100.00;101470.16;6094934;23;20027;-72
2022/04/10 05:07:40;;;;;;;4.25;4.05;;;;;;;-0.95;100.00;101471.97;6095126;23;20018;-71
2022/04/10 05:10:07;;;;;;;2.50;2.40;;;;;;;-0.62;100.00;101517.75;6106142;23;20032;-70
2022/04/10 05:12:34;;;;;;;4.47;4.28;;;;;;;-2.32;100.00;101229.78;6110124;23;20020;-71
2022/04/10 05:15:00;;;;;;;2.60;2.50;;;;;;;-0.65;100.00;101495.38;6115825;23;20092;-70
2022/04/10 05:17:28;;;;;;;3.63;3.47;;;;;;;-0.42;100.00;101518.75;6109623;23;20018;-71
2022/04/10 05:19:54;;;;;;;2.80;2.70;;;;;;;-0.83;100.00;101449.72;6107520;23;20017;-71
2022/04/10 05:22:21;;;;;;;2.75;2.65;;;;;;;-0.44;100.00;101496.38;6115789;23;20027;-70
2022/04/10 05:24:47;;;;;;;2.80;2.70;;;;;;;-0.59;100.00;101465.34;6129424;23;20068;-70
2022/04/10 05:27:14;;;;;;;2.60;2.50;;;;;;;-0.85;100.00;101427.38;6111884;23;20013;-71
2022/04/10 05:29:40;;;;;;;4.28;4.07;;;;;;;-0.64;100.00;101461.03;6094138;23;20092;-70
2022/04/10 05:32:07;;;;;;;2.65;2.55;;;;;;;-0.48;100.00;101486.88;6107115;23;20032;-70
2022/04/10 05:34:33;;;;;;;4.07;3.88;;;;;;;-0.13;100.00;101533.53;6114337;23;20057;-72
2022/04/10 05:37:00;;;;;;;2.72;2.63;;;;;;;-0.02;100.00;101543.88;6121766;23;20144;-71
2022/04/10 05:39:26;;;;;;;2.60;2.50;;;;;;;0.01;100.00;101523.28;6094254;23;20019;-71
2022/04/10 05:41:52;;;;;;;2.70;2.60;;;;;;;0.31;100.00;101526.84;6116848;23;20033;-71
2022/04/10 05:44:19;;;;;;;2.80;2.70;;;;;;;-0.02;100.00;101441.56;6117447;23;20021;-72
2022/04/10 05:46:45;;;;;;;3.22;3.13;;;;;;;0.58;100.00;101502.78;6107379;23;20013;-72
2022/04/10 05:49:16;;;;;;;2.67;2.58;;;;;;;0.75;100.00;101500.25;6115284;23;20492;-72
2022/04/10 05:51:42;;;;;;;2.70;2.60;;;;;;;0.90;100.00;101508.03;6074353;23;20304;-72
2022/04/10 05:54:09;;;;;;;2.60;2.50;;;;;;;1.07;100.00;101520.94;6121255;23;20014;-70
2022/04/10 05:56:35;;;;;;;4.75;4.55;;;;;;;1.27;100.00;101543.38;6102368;23;20092;-71
2022/04/10 05:59:02;;;;;;;2.60;2.50;;;;;;;1.10;100.00;101499.41;6109962;23;20023;-70
2022/04/10 06:01:28;;;;;;;3.53;3.42;;;;;;;1.36;100.00;101535.59;6072848;23;20013;-71
2022/04/10 06:03:55;;;;;;;2.70;2.60;;;;;;;1.49;100.00;101545.06;6082974;23;20017;-70
2022/04/10 06:06:21;;;;;;;2.70;2.60;;;;;;;0.96;100.00;101434.78;6098753;23;20092;-70
2022/04/10 06:08:48;;;;;;;2.80;2.70;;;;;;;1.14;99.81;101494.25;6079083;23;20071;-70
2022/04/10 06:11:14;;;;;;;2.92;2.83;;;;;;;1.51;98.89;101521.78;6098186;23;20020;-71
2022/04/10 06:13:41;;;;;;;5.50;5.30;;;;;;;1.90;98.78;101556.19;6079232;23;20049;-71
2022/04/10 06:16:08;;;;;;;2.83;2.72;;;;;;;1.61;98.63;101499.34;6107138;23;20457;-70
2022/04/10 06:18:34;;;;;;;4.45;4.25;;;;;;;1.96;98.87;101520.78;6105645;23;20401;-70
2022/04/10 06:21:01;;;;;;;3.25;3.15;;;;;;;2.20;98.04;101552.66;6118207;23;20035;-71
2022/04/10 06:23:27;;;;;;;3.83;3.67;;;;;;;2.53;97.19;101571.53;6067140;23;20197;-70
2022/04/10 06:25:53;;;;;;;3.17;3.00;;;;;;;2.69;95.99;101567.13;6104673;23;20408;-70
2022/04/10 06:28:20;;;;;;;2.90;2.80;;;;;;;2.66;94.98;101539.47;6101336;23;20014;-71
2022/04/10 06:30:46;;;;;;;3.20;3.10;;;;;;;2.98;93.76;101572.13;6081114;23;20363;-70
2022/04/10 06:33:14;;;;;;;3.00;2.90;;;;;;;3.04;92.77;101553.91;6112927;23;20318;-72
2022/04/10 06:35:41;;;;;;;5.72;5.45;;;;;;;2.83;90.96;101499.63;6114638;23;20356;-72
2022/04/10 06:38:07;;;;;;;3.05;2.95;;;;;;;3.46;89.82;101571.75;6117350;23;20027;-72
2022/04/10 06:40:34;;;;;;;4.95;4.75;;;;;;;3.48;89.27;101544.91;6103225;23;20080;-72
2022/04/10 06:43:00;;;;;;;3.35;3.25;;;;;;;3.63;87.97;101556.00;6100623;23;20037;-72
2022/04/10 06:45:27;;;;;;;3.45;3.35;;;;;;;3.51;87.32;101505.97;6062272;23;20029;-72
2022/04/10 06:47:53;;;;;;;3.58;3.35;;;;;;;3.92;86.11;101538.41;6098200;23;20046;-72
2022/04/10 06:50:20;;;;;;;3.40;3.30;;;;;;;4.21;85.28;101568.41;6092864;23;20022;-73
2022/04/10 06:52:49;;;;;;;3.20;3.10;;;;;;;3.16;84.45;101364.50;6099340;23;20521;-73
2022/04/10 06:55:17;;;;;;;3.40;3.30;;;;;;;4.53;83.19;101587.91;6112609;23;20528;-72
2022/04/10 06:57:43;;;;;;;4.72;4.53;;;;;;;4.72;83.37;101588.53;6052934;23;20113;-72
2022/04/10 07:00:10;;;;;;;3.50;3.40;;;;;;;4.65;82.34;101561.78;6093277;23;20515;-70
2022/04/10 07:02:37;;;;;;;5.35;5.15;;;;;;;4.69;81.33;101554.78;6095050;23;20577;-70
2022/04/10 07:05:05;;;;;;;3.30;3.20;;;;;;;4.82;81.69;101568.47;6102074;23;20083;-70
2022/04/10 07:07:31;;;;;;;5.05;4.85;;;;;;;5.07;81.32;101580.25;6093516;23;20080;-70
2022/04/10 07:10:01;;;;;;;4.47;4.28;;;;;;;4.77;79.02;101517.41;6097375;23;20263;-70
2022/04/10 07:12:27;;;;;;;4.03;3.88;;;;;;;5.04;79.06;101543.00;6103132;23;20360;-70
2022/04/10 07:14:53;;;;;;;3.45;3.35;;;;;;;5.29;79.20;101551.25;6083835;23;20352;-72
2022/04/10 07:17:20;;;;;;;3.30;3.20;;;;;;;4.42;77.89;101411.34;6104025;23;20088;-70
2022/04/10 07:19:46;;;;;;;3.05;2.95;;;;;;;5.35;77.50;101553.75;6102682;23;20188;-70
2022/04/10 07:24:58;;;;;;;3.45;3.35;;;;;;;5.34;77.12;101539.03;6110361;23;20018;-70
2022/04/10 07:27:24;;;;;;;3.67;3.55;;;;;;;5.74;77.32;101598.25;6118187;23;20096;-72
2022/04/10 07:29:51;;;;;;;3.60;3.40;;;;;;;5.97;77.38;101603.06;6106158;23;20029;-70
2022/04/10 07:32:17;;;;;;;3.60;3.50;;;;;;;5.76;75.32;101570.44;6115568;23;20434;-71
2022/04/10 07:34:44;;;;;;;4.28;4.07;;;;;;;5.64;75.42;101563.69;6086972;23;20165;-70
2022/04/10 07:37:10;;;;;;;3.35;3.25;;;;;;;5.89;75.81;101600.56;6125636;23;20021;-70
2022/04/10 07:39:36;;;;;;;4.68;4.47;;;;;;;5.97;76.59;101603.94;6075997;23;20026;-70
2022/04/10 07:42:03;;;;;;;3.42;3.33;;;;;;;5.93;75.75;101584.00;6109740;23;20029;-70
2022/04/10 07:44:54;;;;;;;3.90;3.70;;;;;;;5.82;74.66;101554.69;6129796;23;20017;-71
2022/04/10 07:47:27;;;;;;;6.13;3.47;;;;;;;6.23;72.42;101620.81;6111794;23;20013;-71
2022/04/10 07:49:54;;;;;;;;;;;;;;;6.36;73.25;101621.44;6108650;23;20036;-71
2022/04/10 07:52:21;;;;;;;3.63;3.53;;;;;;;6.25;72.08;101623.38;6110675;23;19912;-70
2022/04/10 07:54:48;;;;;;;3.40;3.30;;;;;;;6.43;72.89;101630.00;6087512;23;20017;-70
2022/04/10 07:57:16;;;;;;;3.60;3.45;;;;;;;6.33;72.13;101592.81;6111434;23;20085;-70
2022/04/10 07:59:43;;;;;;;4.55;4.35;;;;;;;6.07;72.34;101570.72;6093599;23;20041;-71
2022/04/10 08:02:09;;;;;;;3.40;3.30;;;;;;;6.50;73.02;101615.94;6108394;23;20021;-70
2022/04/10 08:04:36;;;;;;;5.78;5.55;;;;;;;6.64;72.02;101631.31;6101108;23;20520;-70
2022/04/10 08:07:03;;;;;;;3.30;3.20;;;;;;;6.81;70.57;101637.00;6124217;23;20029;-70
2022/04/10 08:09:33;;;;;;;4.70;4.50;;;;;;;6.76;71.28;101636.28;6089825;23;20586;-70
2022/04/10 08:12:00;;;;;;;3.55;3.45;;;;;;;7.28;70.73;101653.38;6076689;23;20025;-70
2022/04/10 08:14:26;;;;;;;3.95;3.80;;;;;;;7.42;67.63;101650.44;6117577;23;20096;-68
2022/04/10 08:16:53;;;;;;;3.35;3.25;;;;;;;7.84;67.79;101662.47;6109140;23;20026;-72
2022/04/10 08:19:20;;;;;;;3.70;3.60;;;;;;;7.37;66.75;101658.38;6112070;23;20471;-72
2022/04/10 08:21:46;;;;;;;3.50;3.40;;;;;;;7.31;65.81;101645.47;6107626;23;20367;-72
2022/04/10 08:24:13;;;;;;;3.70;3.50;;;;;;;7.41;66.09;101659.16;6117632;23;20032;-72
2022/04/10 08:26:39;;;;;;;4.97;4.78;;;;;;;7.45;66.47;101662.56;6094755;23;20314;-72
2022/04/10 08:29:06;;;;;;;3.35;3.25;;;;;;;7.39;66.80;101608.72;6096575;23;20032;-72
2022/04/10 08:31:32;;;;;;;4.78;4.57;;;;;;;6.60;66.50;101510.53;6107325;23;20110;-74
2022/04/10 08:33:59;;;;;;;3.90;3.70;;;;;;;7.39;67.32;101650.50;6108177;23;20604;-72
2022/04/10 08:36:26;;;;;;;4.38;4.20;;;;;;;7.80;66.42;101646.03;6112001;23;20017;-71
2022/04/10 08:38:53;;;;;;;3.72;3.63;;;;;;;8.32;65.96;101675.19;6088306;23;20053;-72
2022/04/10 08:41:21;;;;;;;3.78;3.67;;;;;;;7.96;65.59;101621.22;6113188;23;20013;-73
2022/04/10 08:43:48;;;;;;;4.32;4.13;;;;;;;8.07;59.71;101581.72;6112334;23;20212;-73
2022/04/10 08:46:18;;;;;;;4.10;3.90;;;;;;;8.81;58.60;101663.38;6101688;23;20458;-73
2022/04/10 08:48:45;;;;;;;4.30;4.10;;;;;;;8.81;58.63;101647.66;6073456;23;20063;-73
2022/04/10 08:51:11;;;;;;;3.63;3.53;;;;;;;8.88;58.02;101674.50;6120976;23;20049;-73
2022/04/10 08:53:38;;;;;;;5.15;4.95;;;;;;;8.63;60.01;101676.97;6095308;23;20066;-73
2022/04/10 08:56:06;;;;;;;4.43;4.22;;;;;;;8.49;60.03;101672.97;6118190;23;20035;-74
2022/04/10 08:58:32;;;;;;;5.13;4.93;;;;;;;7.27;57.77;101518.50;6108915;23;20028;-73
2022/04/10 09:00:59;;;;;;;3.60;3.50;;;;;;;8.11;58.87;101672.22;6098078;23;20178;-73
2022/04/10 09:03:27;;;;;;;4.47;4.30;;;;;;;7.88;59.75;101659.78;6081048;23;20009;-73
2022/04/10 09:06:07;;;;;;;4.00;3.80;;;;;;;7.79;57.55;101666.06;6110055;23;20059;-73
2022/04/10 09:08:34;;;;;;;5.07;4.88;;;;;;;8.03;56.75;101696.88;6102831;23;20017;-73
2022/04/10 09:11:05;;;;;;;3.80;3.70;;;;;;;7.98;59.11;101687.38;6108383;23;20040;-73
2022/04/10 09:13:34;;;;;;;5.10;4.90;;;;;;;7.64;55.87;101616.84;6098218;23;20037;-72
2022/04/10 09:16:14;;;;;;;3.80;3.70;;;;;;;8.38;56.24;101685.50;6124388;23;20026;-72
2022/04/10 09:18:44;;;;;;;5.18;4.97;;;;;;;8.45;57.30;101684.44;6095750;23;20570;-72
2022/04/10 09:21:11;;;;;;;3.80;3.60;;;;;;;8.67;56.51;101634.13;6105313;23;20033;-72
2022/04/10 09:23:37;;;;;;;5.15;4.95;;;;;;;9.05;52.13;101679.25;6107291;23;20501;-73
2022/04/10 09:26:04;;;;;;;4.30;4.10;;;;;;;8.30;53.53;101651.69;6115213;23;20088;-72
2022/04/10 09:28:44;;;;;;;5.32;5.13;;;;;;;8.73;52.49;101674.06;6106718;23;20022;-72
2022/04/10 09:31:31;;;;;;;3.72;3.63;;;;;;;8.74;52.72;101670.53;6098276;23;20453;-73
2022/04/10 09:34:09;;;;;;;3.75;3.65;;;;;;;9.04;52.76;101647.00;6081235;23;20081;-73
2022/04/10 09:36:38;;;;;;;5.20;5.00;;;;;;;9.76;53.05;101672.63;6094844;23;20546;-72
2022/04/10 09:39:07;;;;;;;4.00;3.80;;;;;;;10.06;50.13;101680.38;6105321;23;20084;-73
2022/04/10 09:41:34;;;;;;;4.70;4.50;;;;;;;9.49;51.54;101675.25;6102615;23;20009;-73
2022/04/10 09:44:11;;;;;;;4.00;3.80;;;;;;;8.78;51.56;101656.47;6108796;23;20014;-72
2022/04/10 09:46:40;;;;;;;5.28;5.07;;;;;;;8.46;52.75;101666.97;6106710;23;20016;-71
2022/04/10 09:49:18;;;;;;;4.00;3.80;;;;;;;8.03;52.62;101621.06;6110926;23;20041;-71
2022/04/10 09:52:12;;;;;;;4.10;3.90;;;;;;;8.50;52.38;101682.56;6111938;23;20216;-71
2022/04/10 09:54:40;;;;;;;5.50;5.30;;;;;;;8.17;51.76;101634.59;6087010;23;20089;-71
2022/04/10 09:57:17;;;;;;;3.78;3.67;;;;;;;8.69;51.26;101674.19;6121195;23;20041;-71
2022/04/10 09:59:51;;;;;;;4.40;4.20;;;;;;;8.99;50.27;101682.91;6110091;23;20029;-72
2022/04/10 10:02:20;;;;;;;3.80;3.70;;;;;;;9.36;49.34;101682.66;6103666;23;20181;-71
2022/04/10 10:04:48;;;;;;;4.38;4.18;;;;;;;8.07;48.98;101491.97;6101795;23;20411;-71
2022/04/10 10:07:17;;;;;;;3.95;3.80;;;;;;;8.87;48.70;101660.56;6100773;23;20506;-71
2022/04/10 10:09:46;;;;;;;4.60;4.40;;;;;;;8.34;50.21;101639.41;6093985;23;20051;-73
2022/04/10 10:12:13;;;;;;;4.07;3.88;;;;;;;8.70;51.39;101679.38;6098295;23;20096;-72
2022/04/10 10:14:41;;;;;;;5.28;5.07;;;;;;;7.41;51.24;101512.94;6081586;23;20466;-72
2022/04/10 10:17:09;;;;;;;4.00;3.80;;;;;;;8.46;51.74;101656.50;6108072;23;20505;-71
2022/04/10 10:19:38;;;;;;;4.97;4.78;;;;;;;8.90;51.39;101680.56;6091158;23;20018;-73
2022/04/10 10:22:10;;;;;;;4.10;3.90;;;;;;;8.64;48.81;101676.94;6086252;23;20079;-71
2022/04/10 10:25:03;;;;;;;5.65;5.45;;;;;;;8.61;49.56;101663.94;6075670;23;20029;-73
2022/04/10 10:27:48;;;;;;;5.43;5.22;;;;;;;8.44;49.28;101666.16;6104788;23;20096;-71
2022/04/10 10:30:35;;;;;;;3.70;3.60;;;;;;;8.66;49.07;101663.78;6094405;23;20107;-73
2022/04/10 10:33:19;;;;;;;4.30;4.10;;;;;;;8.93;49.20;101667.38;6105012;23;20018;-71
2022/04/10 10:35:51;;;;;;;4.65;4.45;;;;;;;9.51;47.24;101657.72;6098679;23;20100;-71
2022/04/10 10:38:22;;;;;;;3.80;3.70;;;;;;;8.53;45.73;101522.03;6106720;23;20021;-71
2022/04/10 10:40:53;;;;;;;4.20;4.00;;;;;;;8.34;47.36;101569.63;6101880;23;20286;-71
2022/04/10 10:43:24;;;;;;;3.70;3.60;;;;;;;8.97;48.22;101662.00;6106989;23;20009;-71
2022/04/10 10:45:54;;;;;;;4.15;3.95;;;;;;;9.06;49.08;101663.50;6101791;23;20028;-71
2022/04/10 10:48:42;;;;;;;5.18;4.97;;;;;;;8.96;49.23;101662.91;6104278;23;20037;-70
2022/04/10 10:51:09;;;;;;;3.72;3.63;;;;;;;8.50;48.02;101669.50;6107151;23;20344;-71
2022/04/10 10:54:00;;;;;;;5.57;5.38;;;;;;;8.65;49.09;101659.47;6099650;23;20035;-72
2022/04/10 10:56:32;;;;;;;4.47;4.28;;;;;;;8.77;49.29;101673.06;6093528;23;20089;-70
2022/04/10 10:59:27;;;;;;;4.10;3.90;;;;;;;9.08;49.54;101672.16;6096200;23;20430;-70
2022/04/10 11:02:03;;;;;;;4.70;4.50;;;;;;;9.14;46.78;101618.72;6110354;23;20108;-70
2022/04/10 11:04:45;;;;;;;4.03;3.85;;;;;;;8.90;47.89;101634.31;6084496;23;20501;-70
2022/04/10 11:07:12;;;;;;;3.88;3.75;;;;;;;8.75;48.50;101643.47;6112813;23;20017;-70
2022/04/10 11:09:59;;;;;;;5.38;5.18;;;;;;;9.45;48.18;101675.41;6097758;23;20022;-71
2022/04/10 11:12:33;;;;;;;4.93;4.72;;;;;;;9.73;47.55;101670.13;6110091;23;20041;-71
2022/04/10 11:15:11;;;;;;;4.30;4.10;;;;;;;10.08;46.96;101660.19;6107250;23;20111;-71
2022/04/10 11:17:39;;;;;;;5.75;5.53;;;;;;;10.11;47.90;101644.38;6122170;23;20064;-71
2022/04/10 11:20:09;;;;;;;4.13;3.92;;;;;;;10.10;47.41;101650.50;6090264;23;20104;-73
2022/04/10 11:22:39;;;;;;;5.38;5.18;;;;;;;9.44;47.43;101630.03;6105163;23;20512;-73
2022/04/10 11:25:10;;;;;;;4.10;3.90;;;;;;;9.79;48.54;101647.19;6119695;23;20115;-71
2022/04/10 11:27:41;;;;;;;5.25;5.05;;;;;;;9.54;49.66;101668.13;6107201;23;20463;-73
2022/04/10 11:30:13;;;;;;;4.17;3.97;;;;;;;9.90;50.56;101665.19;6102868;23;20076;-70
2022/04/10 11:32:49;;;;;;;5.75;5.50;;;;;;;9.71;49.91;101659.69;6109342;23;20446;-70
2022/04/10 11:35:27;;;;;;;4.30;4.10;;;;;;;9.65;50.82;101607.47;6097977;23;20009;-71
2022/04/10 11:38:02;;;;;;;4.20;4.00;;;;;;;9.84;50.26;101667.13;6105788;23;20401;-73